Terminal Aerodrome Forecast
Issued by NWS Jacksonville, FL

Home | Current Version | Previous Version | Text Only | Print | Product List | Glossary On
Versions: 1 2 3 4 5 6 7 8 9 10 11 12 13 14 15 16 17 18 19 20 21
000
FTUS42 KJAX 211700
TAFGNV
TAF
KGNV 211720Z 2118/2218 02005KT P6SM SKC
     FM212300 00000KT P6SM SKC
     FM220800 00000KT 3SM BR SCT005
     FM221300 26005KT P6SM SCT040 BKN250=

USA.gov is the U.S. government's official web portal to all federal, state and local government web resources and services.